Lenoir, NC (28633)

3:57 AM EST on February 08, 2016 (GMT -0500)
Highland Ave | | Change Station
CLOSE
Current Station
Personal Weather Station
Location: Lenoir, NC
Elevation: 1128 ft
Nearby Weather Stations

Elev 1128 ft 35.91 °N, 81.53 °W | Updated 8 seconds ago

Clear
Clear
27.3 °F
Feels Like 27 °F
N
0.0
Wind Variable Wind from North
Gusts 0.0 mph

Today
High -- | Low -- °F
--% Chance of Precip.
Yesterday
High -- | Low -- °F
Precip. -- in
Pressure 29.86 in
Visibility 10.0 miles
Clouds Clear
Windchill 27 °F
Dew Point 22 °F
Humidity 82%
Rainfall 0.00 in
Snow Depth Not available.
7:20 AM 6:00 PM
Waning Crescent, 0% visible
METAR KMRN 080835Z AUTO 00000KT 10SM CLR M03/M04 A2986 RMK AO2 T10321042
Pressure 29.86 in
Visibility 10.0 miles
Clouds Clear
Windchill 27 °F
Dew Point 22 °F
Humidity 82%
Rainfall 0.00 in
Snow Depth Not available.
7:20 AM 6:00 PM
Waning Crescent, 0% visible
METAR KMRN 080835Z AUTO 00000KT 10SM CLR M03/M04 A2986 RMK AO2 T10321042

10-Day Weather Forecast

Almanac

Astronomy

Feb. 08, 2016 Rise Set
Actual Time
Civil Twilight
Nautical Twilight
Astronomical Twilight
Moon
Length of Visible Light
Length of Day
Tomorrow will be .
, % of the Moon is Illuminated

Today's Extremes

State Highs State Lows

Community

WunderPhotos

Upload Photos

1,891,412 photos uploaded!

WunderBlog® & News

Nearby

Air Quality

  Air Quality AQ Index Pollutant
Not available.

Snow Depth

Station Depth Elevation

Earthquake Activity

City Distance Mag. Time & Date
Minimum magnitude displayed is 2.5.

Coastal Water Temperatures

Place Temperature

Stations

Nearby Weather Stations

Station Location Temp. Windchill Dew Point Humidity Wind Precip. Elev Updated Type
                   

Watches & Warnings

There are currently no watches in effect.